createdAt,value
2023-03-15T00:01:08.987Z,100680.75
2023-03-15T00:03:40.075Z,100675.78
2023-03-15T00:06:07.512Z,100654.50
2023-03-15T00:08:35.004Z,100664.63
2023-03-15T00:11:02.384Z,100643.91
2023-03-15T00:13:30.782Z,100630.25
2023-03-15T00:16:01.747Z,100628.84
2023-03-15T00:18:29.037Z,100633.00
2023-03-15T00:20:56.812Z,100641.91
2023-03-15T00:23:24.155Z,100625.59
2023-03-15T00:25:52.895Z,100619.03
2023-03-15T00:28:20.477Z,100658.94
2023-03-15T00:30:48.081Z,100651.72
2023-03-15T00:33:16.210Z,100635.88
2023-03-15T00:35:45.229Z,100624.00
2023-03-15T00:38:14.332Z,100610.50
2023-03-15T00:40:42.547Z,100595.72
2023-03-15T00:43:09.973Z,100607.84
2023-03-15T00:45:37.479Z,100623.50
2023-03-15T00:48:05.347Z,100610.34
2023-03-15T00:50:32.607Z,100619.00
2023-03-15T00:52:59.762Z,100620.47
2023-03-15T00:55:29.070Z,100639.50
2023-03-15T00:57:56.973Z,100611.88
2023-03-15T01:00:25.146Z,100650.56
2023-03-15T01:02:53.821Z,100639.41
2023-03-15T01:05:21.947Z,100638.13
2023-03-15T01:07:49.753Z,100621.19
2023-03-15T01:10:17.562Z,100626.97
2023-03-15T01:12:45.936Z,100637.69
2023-03-15T01:15:15.285Z,100597.91
2023-03-15T01:17:43.263Z,100626.13
2023-03-15T01:20:13.739Z,100639.88
2023-03-15T01:22:42.579Z,100630.53
2023-03-15T01:25:10.488Z,100649.38
2023-03-15T01:27:37.849Z,100629.59
2023-03-15T01:30:05.617Z,100632.31
2023-03-15T01:32:33.716Z,100612.19
2023-03-15T01:35:01.039Z,100655.47
2023-03-15T01:37:28.564Z,100660.25
2023-03-15T01:39:56.069Z,100617.81
2023-03-15T01:42:23.279Z,100660.78
2023-03-15T01:45:02.021Z,100656.00
2023-03-15T01:47:32.953Z,100646.88
2023-03-15T01:50:07.252Z,100638.72
2023-03-15T01:52:37.440Z,100648.97
2023-03-15T01:55:15.133Z,100679.78
2023-03-15T01:57:59.272Z,100673.47
2023-03-15T02:00:28.714Z,100658.78
2023-03-15T02:03:09.390Z,100673.13
2023-03-15T02:05:46.344Z,100684.69
2023-03-15T02:08:26.249Z,100682.88
2023-03-15T02:10:58.853Z,100698.69
2023-03-15T02:13:29.371Z,100642.72
2023-03-15T02:16:00.005Z,100659.88
2023-03-15T02:18:41.302Z,100674.94
2023-03-15T02:21:31.173Z,100681.94
2023-03-15T02:24:33.763Z,100681.66
2023-03-15T02:27:04.523Z,100688.19
2023-03-15T02:29:31.821Z,100690.84
2023-03-15T02:32:02.554Z,100693.41
2023-03-15T02:34:31.922Z,100678.47
2023-03-15T02:36:59.021Z,100664.44
2023-03-15T02:39:27.720Z,100668.78
2023-03-15T02:41:58.171Z,100695.84
2023-03-15T02:44:33.167Z,100670.72
2023-03-15T02:47:10.617Z,100665.69
2023-03-15T02:49:42.633Z,100674.75
2023-03-15T02:52:10.533Z,100670.75
2023-03-15T02:54:41.028Z,100660.66
2023-03-15T02:57:12.184Z,100681.81
2023-03-15T02:59:42.399Z,100662.44
2023-03-15T03:02:11.989Z,100648.66
2023-03-15T03:04:42.143Z,100624.13
2023-03-15T03:07:10.578Z,100622.47
2023-03-15T03:09:45.731Z,100617.66
2023-03-15T03:12:14.405Z,100588.31
2023-03-15T03:14:43.525Z,100626.88
2023-03-15T03:17:15.338Z,100602.50
2023-03-15T03:19:43.130Z,100617.75
2023-03-15T03:22:13.574Z,100605.00
2023-03-15T03:24:45.926Z,100610.28
2023-03-15T03:27:15.497Z,100587.13
2023-03-15T03:29:45.642Z,100605.69
2023-03-15T03:32:13.318Z,100587.47
2023-03-15T03:34:40.515Z,100596.69
2023-03-15T03:37:08.708Z,100607.09
2023-03-15T03:40:08.434Z,100616.88
2023-03-15T03:42:37.464Z,100601.78
2023-03-15T03:45:06.412Z,100610.97
2023-03-15T03:47:38.852Z,100604.75
2023-03-15T03:50:06.714Z,100612.41
2023-03-15T03:52:33.855Z,100613.94
2023-03-15T03:55:07.320Z,100599.06
2023-03-15T03:57:34.465Z,100549.53
2023-03-15T04:00:02.210Z,100579.00
2023-03-15T04:02:31.596Z,100586.84
2023-03-15T04:05:02.984Z,100588.72
2023-03-15T04:07:30.719Z,100576.94
2023-03-15T04:09:58.205Z,100574.81
2023-03-15T04:12:25.911Z,100578.13
2023-03-15T04:14:55.425Z,100574.50
2023-03-15T04:17:25.136Z,100571.44
2023-03-15T04:19:52.445Z,100584.22
2023-03-15T04:22:26.305Z,100554.34
2023-03-15T04:25:03.296Z,100582.72
2023-03-15T04:27:43.671Z,100590.41
2023-03-15T04:30:30.824Z,100556.19
2023-03-15T04:33:11.974Z,100590.63
2023-03-15T04:35:58.706Z,100573.41
2023-03-15T04:39:05.728Z,100571.47
2023-03-15T04:41:45.697Z,100565.81
2023-03-15T04:44:26.801Z,100544.84
2023-03-15T04:47:15.036Z,100554.41
2023-03-15T04:50:00.830Z,100576.78
2023-03-15T04:52:48.867Z,100601.63
2023-03-15T04:55:48.526Z,100575.41
2023-03-15T04:58:45.331Z,100599.34
2023-03-15T05:01:38.549Z,100598.25
2023-03-15T05:04:29.148Z,100581.06
2023-03-15T05:07:31.480Z,100562.25
2023-03-15T05:10:18.418Z,100573.09
2023-03-15T05:13:19.081Z,100583.47
2023-03-15T05:16:10.210Z,100562.50
2023-03-15T05:18:37.925Z,100549.47
2023-03-15T05:21:15.681Z,100527.75
2023-03-15T05:24:07.203Z,100552.56
2023-03-15T05:26:54.418Z,100565.47
2023-03-15T05:29:31.025Z,100527.16
2023-03-15T05:32:26.855Z,100570.53
2023-03-15T05:35:20.091Z,100565.78
2023-03-15T05:38:08.211Z,100550.69
2023-03-15T05:41:22.750Z,100536.38
2023-03-15T05:44:27.722Z,100562.69
2023-03-15T05:47:13.204Z,100577.16
2023-03-15T05:50:05.130Z,100521.72
2023-03-15T05:52:52.153Z,100573.94
2023-03-15T05:55:51.928Z,100554.13
2023-03-15T05:58:55.581Z,100525.47
2023-03-15T06:01:49.258Z,100530.50
2023-03-15T06:04:22.449Z,100532.78
2023-03-15T06:06:49.923Z,100525.41
2023-03-15T06:09:19.091Z,100551.44
2023-03-15T06:11:46.983Z,100553.56
2023-03-15T06:14:14.421Z,100519.88
2023-03-15T06:16:53.686Z,100534.41
2023-03-15T06:19:21.628Z,100507.66
2023-03-15T06:21:49.758Z,100511.03
2023-03-15T06:24:31.687Z,100516.72
2023-03-15T06:26:59.149Z,100497.94
2023-03-15T06:29:26.937Z,100521.78
2023-03-15T06:31:55.657Z,100511.16
2023-03-15T06:34:24.952Z,100523.53
2023-03-15T06:36:52.734Z,100500.09
2023-03-15T06:39:20.177Z,100485.06
2023-03-15T06:41:47.729Z,100474.34
2023-03-15T06:44:22.616Z,100467.72
2023-03-15T06:46:54.982Z,100492.41
2023-03-15T06:49:22.133Z,100458.94
2023-03-15T06:51:49.703Z,100430.09
2023-03-15T06:54:19.819Z,100433.25
2023-03-15T06:56:46.966Z,100442.66
2023-03-15T06:59:14.330Z,100447.72
2023-03-15T07:01:42.358Z,100469.75
2023-03-15T07:04:09.945Z,100449.38
2023-03-15T07:06:38.071Z,100481.69
2023-03-15T07:09:06.801Z,100465.50
2023-03-15T07:11:34.353Z,100462.41
2023-03-15T07:14:01.746Z,100462.63
2023-03-15T07:16:28.996Z,100474.25
2023-03-15T07:18:56.974Z,100459.63
2023-03-15T07:21:24.125Z,100467.81
2023-03-15T07:23:51.490Z,100486.34
2023-03-15T07:26:18.794Z,100467.53
2023-03-15T07:28:46.513Z,100470.81
2023-03-15T07:31:14.303Z,100464.59
2023-03-15T07:33:41.465Z,100446.19
2023-03-15T07:36:09.359Z,100450.31
2023-03-15T07:38:36.998Z,100448.66
2023-03-15T07:41:06.875Z,100444.31
2023-03-15T07:43:34.854Z,100453.00
2023-03-15T07:46:14.928Z,100428.97
2023-03-15T07:48:42.564Z,100416.53
2023-03-15T07:51:16.452Z,100419.59
2023-03-15T07:53:53.069Z,100380.50
2023-03-15T07:56:20.374Z,100311.53
2023-03-15T07:58:47.831Z,100376.34
2023-03-15T08:01:15.093Z,100349.00
2023-03-15T08:03:42.342Z,100385.63
2023-03-15T08:06:09.602Z,100432.66
2023-03-15T08:08:36.841Z,100416.00
2023-03-15T08:11:05.887Z,100402.34
2023-03-15T08:13:34.002Z,100378.13
2023-03-15T08:16:01.483Z,100373.69
2023-03-15T08:18:31.811Z,100359.16
2023-03-15T08:20:59.359Z,100373.81
2023-03-15T08:23:27.155Z,100363.50
2023-03-15T08:25:54.380Z,100392.09
2023-03-15T08:28:21.968Z,100361.22
2023-03-15T08:30:49.128Z,100363.03
2023-03-15T08:33:16.640Z,100365.22
2023-03-15T08:35:43.925Z,100355.34
2023-03-15T08:38:11.223Z,100338.19
2023-03-15T08:40:39.948Z,100353.72
2023-03-15T08:43:07.198Z,100346.94
2023-03-15T08:45:51.175Z,100328.63
2023-03-15T08:48:21.654Z,100355.38
2023-03-15T08:50:48.786Z,100326.50
2023-03-15T08:53:16.979Z,100313.59
2023-03-15T08:55:44.442Z,100348.41
2023-03-15T08:58:13.422Z,100349.09
2023-03-15T09:00:40.789Z,100326.97
2023-03-15T09:03:08.840Z,100337.22
2023-03-15T09:05:38.045Z,100330.59
2023-03-15T09:08:05.689Z,100317.38
2023-03-15T09:10:34.815Z,100333.53
2023-03-15T09:13:02.514Z,100316.44
2023-03-15T09:15:29.760Z,100322.56
2023-03-15T09:17:57.076Z,100314.03
2023-03-15T09:20:28.961Z,100309.84
2023-03-15T09:22:58.372Z,100309.88
2023-03-15T09:25:26.329Z,100304.13
2023-03-15T09:27:53.981Z,100295.97
2023-03-15T09:30:21.504Z,100258.03
2023-03-15T09:32:49.725Z,100278.41
2023-03-15T09:35:19.345Z,100258.19
2023-03-15T09:37:47.847Z,100255.84
2023-03-15T09:40:33.998Z,100253.59
2023-03-15T09:43:07.554Z,100254.69
2023-03-15T09:46:20.808Z,100263.34
2023-03-15T09:49:01.815Z,100228.53
2023-03-15T09:51:35.597Z,100242.44
2023-03-15T09:54:24.070Z,100238.09
2023-03-15T09:56:59.685Z,100256.09
2023-03-15T09:59:33.450Z,100237.69
2023-03-15T10:02:13.435Z,100231.56
2023-03-15T10:04:44.989Z,100229.94
2023-03-15T10:07:15.559Z,100244.75
2023-03-15T10:09:43.806Z,100232.06
2023-03-15T10:12:13.531Z,100246.28
2023-03-15T10:15:01.228Z,100228.50
2023-03-15T10:17:46.789Z,100211.41
2023-03-15T10:20:24.234Z,100222.47
2023-03-15T10:23:00.380Z,100216.81
2023-03-15T10:25:32.534Z,100202.38
2023-03-15T10:28:17.215Z,100213.19
2023-03-15T10:30:50.963Z,100178.09
2023-03-15T10:33:34.237Z,100225.53
2023-03-15T10:36:11.684Z,100226.59
2023-03-15T10:38:41.986Z,100218.22
2023-03-15T10:41:29.038Z,100240.06
2023-03-15T10:44:04.360Z,100200.84
2023-03-15T10:46:31.725Z,100197.72
2023-03-15T10:49:01.832Z,100188.16
2023-03-15T10:51:38.145Z,100208.53
2023-03-15T10:54:35.425Z,100176.25
2023-03-15T10:57:16.060Z,100194.97
2023-03-15T10:59:59.743Z,100174.28
2023-03-15T11:02:28.216Z,100206.25
2023-03-15T11:05:12.548Z,100192.16
2023-03-15T11:07:54.332Z,100189.69
2023-03-15T11:10:25.434Z,100159.53
2023-03-15T11:13:14.519Z,100177.69
2023-03-15T11:15:52.914Z,100179.78
2023-03-15T11:18:35.051Z,100153.72
2023-03-15T11:21:07.865Z,100175.94
2023-03-15T11:23:38.982Z,100117.94
2023-03-15T11:26:09.648Z,100130.91
2023-03-15T11:28:43.391Z,100127.78
2023-03-15T11:31:10.843Z,100095.03
2023-03-15T11:33:43.968Z,100176.88
2023-03-15T11:36:17.578Z,100181.28
2023-03-15T11:38:48.854Z,100158.84
2023-03-15T11:41:28.447Z,100188.50
2023-03-15T11:44:13.228Z,100116.88
2023-03-15T11:46:49.516Z,100158.31
2023-03-15T11:49:30.823Z,100168.94
2023-03-15T11:51:58.216Z,100165.56
2023-03-15T11:54:30.327Z,100183.75
2023-03-15T11:57:03.513Z,100184.31
2023-03-15T11:59:37.115Z,100204.75
2023-03-15T12:02:10.732Z,100195.72
2023-03-15T12:04:48.315Z,100195.16
2023-03-15T12:07:15.588Z,100190.41
2023-03-15T12:10:05.017Z,100168.28
2023-03-15T12:12:32.305Z,100174.66
2023-03-15T12:15:09.081Z,100190.22
2023-03-15T12:17:42.752Z,100159.56
2023-03-15T12:20:18.022Z,100195.16
2023-03-15T12:23:17.552Z,100142.00
2023-03-15T12:25:54.993Z,100179.31
2023-03-15T12:28:35.684Z,100200.78
2023-03-15T12:31:06.990Z,100168.59
2023-03-15T12:33:54.433Z,100169.78
2023-03-15T12:36:37.645Z,100151.34
2023-03-15T12:39:18.638Z,100174.00
2023-03-15T12:41:51.238Z,100197.50
2023-03-15T12:44:33.736Z,100196.16
2023-03-15T12:50:22.064Z,100037.00
2023-03-15T12:52:53.973Z,100102.13
2023-03-15T12:55:21.650Z,100160.56
2023-03-15T12:57:54.186Z,100117.28
2023-03-15T13:00:23.886Z,100176.34
2023-03-15T13:03:01.544Z,100100.94
2023-03-15T13:05:36.420Z,100043.25
2023-03-15T13:08:30.171Z,100113.44
2023-03-15T13:11:27.536Z,100165.13
2023-03-15T13:14:21.343Z,100110.72
2023-03-15T13:17:06.972Z,100128.34
2023-03-15T13:19:42.215Z,100148.78
2023-03-15T13:22:24.466Z,100134.00
2023-03-15T13:25:24.066Z,100145.06
2023-03-15T13:28:07.794Z,100141.41
2023-03-15T13:30:37.909Z,100146.94
2023-03-15T13:33:22.548Z,100086.59
2023-03-15T13:36:02.092Z,100142.41
2023-03-15T13:38:53.664Z,100151.69
2023-03-15T13:41:29.359Z,100136.28
2023-03-15T13:44:00.518Z,100143.75
2023-03-15T13:46:31.167Z,100103.00
2023-03-15T13:49:03.823Z,100115.81
2023-03-15T13:51:37.591Z,100129.53
2023-03-15T13:54:31.692Z,100125.53
2023-03-15T13:57:16.655Z,100124.38
2023-03-15T13:59:49.860Z,100144.47
2023-03-15T14:02:38.321Z,100121.09
2023-03-15T14:05:10.946Z,100142.84
2023-03-15T14:07:48.500Z,100126.56
2023-03-15T14:10:30.253Z,100152.53
2023-03-15T14:13:05.360Z,100159.28
2023-03-15T14:16:22.075Z,100057.22
2023-03-15T14:18:52.237Z,100085.38
2023-03-15T14:24:48.399Z,100162.53
2023-03-15T14:27:22.740Z,100018.22
2023-03-15T14:29:56.524Z,100155.28
2023-03-15T14:32:33.001Z,100155.53
2023-03-15T14:35:04.293Z,100145.22
2023-03-15T14:37:45.222Z,100132.41
2023-03-15T14:40:29.331Z,100116.78
2023-03-15T14:42:56.624Z,100132.53
2023-03-15T14:45:24.243Z,100148.94
2023-03-15T14:47:57.240Z,100100.81
2023-03-15T14:50:28.531Z,100152.47
2023-03-15T14:52:58.019Z,100134.63
2023-03-15T14:55:34.986Z,100154.47
2023-03-15T14:58:03.973Z,100098.94
2023-03-15T15:00:33.120Z,100158.09
2023-03-15T15:03:00.526Z,100140.09
2023-03-15T15:05:35.110Z,100155.81
2023-03-15T15:08:12.983Z,100125.44
2023-03-15T15:10:42.150Z,100113.09
2023-03-15T15:13:23.678Z,100154.19
2023-03-15T15:15:56.182Z,100119.06
2023-03-15T15:18:26.066Z,100129.34
2023-03-15T15:20:56.669Z,100094.63
2023-03-15T15:23:28.102Z,100017.47
2023-03-15T15:26:04.543Z,100104.59
2023-03-15T15:28:36.899Z,100073.69
2023-03-15T15:31:08.107Z,100054.78
2023-03-15T15:33:35.766Z,100059.56
2023-03-15T15:36:08.011Z,100155.63
2023-03-15T15:38:39.159Z,100082.81
2023-03-15T15:41:13.241Z,100085.53
2023-03-15T15:43:41.188Z,100138.69
2023-03-15T15:46:11.426Z,100121.81
2023-03-15T15:48:39.266Z,100164.75
2023-03-15T15:51:32.368Z,100150.53
2023-03-15T15:54:01.398Z,100141.59
2023-03-15T15:56:44.364Z,100126.66
2023-03-15T15:59:15.101Z,100159.97
2023-03-15T16:01:59.019Z,100166.69
2023-03-15T16:04:26.790Z,100160.69
2023-03-15T16:07:03.616Z,100148.78
2023-03-15T16:09:35.802Z,100164.09
2023-03-15T16:12:29.628Z,100139.16
2023-03-15T16:15:35.103Z,100074.38
2023-03-15T16:18:15.114Z,100123.56
2023-03-15T16:20:43.021Z,100129.72
2023-03-15T16:23:22.087Z,100135.00
2023-03-15T16:25:51.572Z,100142.81
2023-03-15T16:28:19.088Z,100049.63
2023-03-15T16:30:47.118Z,100112.66
2023-03-15T16:33:20.195Z,100093.91
2023-03-15T16:35:53.703Z,100123.94
2023-03-15T16:38:26.624Z,100123.44
2023-03-15T16:40:54.072Z,100113.56
2023-03-15T16:43:21.358Z,100138.94
2023-03-15T16:45:50.564Z,100093.97
2023-03-15T16:48:19.191Z,100107.19
2023-03-15T16:50:48.346Z,100103.59
2023-03-15T16:53:16.156Z,100085.84
2023-03-15T16:55:43.382Z,100096.16
2023-03-15T16:58:16.970Z,100099.22
2023-03-15T17:00:46.822Z,100114.97
2023-03-15T17:03:14.696Z,100107.66
2023-03-15T17:05:45.030Z,100114.84
2023-03-15T17:08:17.695Z,100111.16
2023-03-15T17:10:54.009Z,100117.59
2023-03-15T17:13:27.134Z,100101.44
2023-03-15T17:15:54.442Z,100128.88
2023-03-15T17:18:24.142Z,100110.47
2023-03-15T17:20:55.250Z,100082.47
2023-03-15T17:23:22.677Z,99996.13
2023-03-15T17:25:50.229Z,100135.28
2023-03-15T17:28:20.964Z,100092.16
2023-03-15T17:30:55.195Z,100093.72
2023-03-15T17:33:26.863Z,100088.44
2023-03-15T17:35:57.850Z,100108.22
2023-03-15T17:38:32.247Z,100087.53
2023-03-15T17:41:04.770Z,100091.34
2023-03-15T17:43:32.027Z,100079.38
2023-03-15T17:46:01.814Z,100034.47
2023-03-15T17:48:28.913Z,100064.31
2023-03-15T17:50:56.975Z,100078.69
2023-03-15T17:53:25.385Z,100071.78
2023-03-15T17:55:55.040Z,100099.19
2023-03-15T17:58:25.940Z,100104.13
2023-03-15T18:00:55.141Z,100096.31
2023-03-15T18:03:25.556Z,100031.00
2023-03-15T18:05:53.415Z,100062.56
2023-03-15T18:08:21.566Z,100047.34
2023-03-15T18:10:51.646Z,99994.94
2023-03-15T18:13:23.497Z,100059.66
2023-03-15T18:15:51.650Z,100096.63
2023-03-15T18:18:20.558Z,100083.44
2023-03-15T18:20:49.574Z,100081.22
2023-03-15T18:23:18.160Z,100111.31
2023-03-15T18:25:45.467Z,100101.53
2023-03-15T18:28:12.792Z,100101.81
2023-03-15T18:30:40.140Z,100054.84
2023-03-15T18:33:07.690Z,100069.06
2023-03-15T18:35:37.030Z,100085.16
2023-03-15T18:38:06.416Z,100057.19
2023-03-15T18:40:36.802Z,100041.19
2023-03-15T18:43:06.247Z,100015.25
2023-03-15T18:45:35.918Z,100035.81
2023-03-15T18:48:04.997Z,99989.75
2023-03-15T18:50:34.256Z,100042.28
2023-03-15T18:53:05.177Z,100045.06
2023-03-15T18:55:34.103Z,100022.31
2023-03-15T18:58:01.352Z,100003.53
2023-03-15T19:00:33.282Z,99936.38
2023-03-15T19:03:01.879Z,99983.56
2023-03-15T19:05:32.094Z,100022.78
2023-03-15T19:07:59.754Z,100039.53
2023-03-15T19:10:27.734Z,99954.13
2023-03-15T19:12:56.555Z,99992.69
2023-03-15T19:15:24.248Z,99939.16
2023-03-15T19:17:54.660Z,99939.94
2023-03-15T19:20:23.397Z,99999.41
2023-03-15T19:22:54.319Z,100012.72
2023-03-15T19:25:21.794Z,100006.66
2023-03-15T19:27:49.492Z,99997.13
2023-03-15T19:30:21.210Z,100008.31
2023-03-15T19:32:50.318Z,99983.78
2023-03-15T19:35:21.522Z,99943.91
2023-03-15T19:37:50.422Z,99988.50
2023-03-15T19:40:19.655Z,99971.03
2023-03-15T19:42:48.874Z,99978.31
2023-03-15T19:45:17.104Z,99977.63
2023-03-15T19:47:44.399Z,99952.56
2023-03-15T19:50:13.875Z,99982.38
2023-03-15T19:52:46.482Z,99963.22
2023-03-15T19:55:21.259Z,99959.66
2023-03-15T19:57:48.681Z,99966.28
2023-03-15T20:00:19.600Z,99939.78
2023-03-15T20:02:47.845Z,99839.13
2023-03-15T20:05:18.405Z,99908.69
2023-03-15T20:07:46.344Z,99875.13
2023-03-15T20:10:14.584Z,99935.50
2023-03-15T20:12:43.007Z,99923.53
2023-03-15T20:15:12.151Z,99935.56
2023-03-15T20:17:40.261Z,99923.88
2023-03-15T20:20:13.389Z,99825.47
2023-03-15T20:22:42.484Z,99900.19
2023-03-15T20:25:14.546Z,99937.44
2023-03-15T20:27:42.123Z,99850.84
2023-03-15T20:30:12.709Z,99876.69
2023-03-15T20:32:40.363Z,99912.50
2023-03-15T20:35:09.652Z,99870.19
2023-03-15T20:37:40.589Z,99940.66
2023-03-15T20:40:13.511Z,99907.09
2023-03-15T20:42:41.524Z,99920.88
2023-03-15T20:45:10.607Z,99926.94
2023-03-15T20:47:38.393Z,99898.91
2023-03-15T20:50:09.283Z,99881.13
2023-03-15T20:52:36.551Z,99922.88
2023-03-15T20:55:06.112Z,99909.19
2023-03-15T20:57:33.467Z,99892.81
2023-03-15T21:00:00.702Z,99891.16
2023-03-15T21:02:27.899Z,99926.88
2023-03-15T21:04:55.121Z,99901.03
2023-03-15T21:07:22.291Z,99922.84
2023-03-15T21:09:49.900Z,99853.47
2023-03-15T21:12:17.253Z,99902.06
2023-03-15T21:14:46.989Z,99885.47
2023-03-15T21:17:14.513Z,99896.03
2023-03-15T21:19:42.877Z,99890.84
2023-03-15T21:22:10.482Z,99873.53
2023-03-15T21:24:49.450Z,99894.81
2023-03-15T21:27:22.147Z,99907.50
2023-03-15T21:29:49.378Z,99918.56
2023-03-15T21:32:16.928Z,99913.22
2023-03-15T21:34:44.208Z,99894.75
2023-03-15T21:37:11.623Z,99888.47
2023-03-15T21:39:39.011Z,99900.97
2023-03-15T21:42:06.162Z,99898.59
2023-03-15T21:44:37.713Z,99903.81
2023-03-15T21:47:05.869Z,99914.16
2023-03-15T21:49:33.005Z,99901.56
2023-03-15T21:52:00.216Z,99863.84
2023-03-15T21:54:27.553Z,99900.22
2023-03-15T21:56:55.109Z,99869.72
2023-03-15T21:59:28.185Z,99887.09
2023-03-15T22:01:57.077Z,99870.19
2023-03-15T22:04:25.053Z,99896.59
2023-03-15T22:06:53.122Z,99889.41
2023-03-15T22:09:23.367Z,99916.47
2023-03-15T22:11:51.638Z,99908.56
2023-03-15T22:14:19.054Z,99902.72
2023-03-15T22:16:46.428Z,99869.69
2023-03-15T22:19:14.858Z,99821.97
2023-03-15T22:21:42.365Z,99862.97
2023-03-15T22:24:10.864Z,99864.34
2023-03-15T22:26:37.930Z,99855.81
2023-03-15T22:29:05.207Z,99872.78
2023-03-15T22:31:32.858Z,99864.78
2023-03-15T22:34:00.289Z,99896.25
2023-03-15T22:36:27.522Z,99897.19
2023-03-15T22:38:54.743Z,99888.25
2023-03-15T22:41:24.203Z,99877.38
2023-03-15T22:43:55.022Z,99896.72
2023-03-15T22:46:22.431Z,99888.25
2023-03-15T22:48:49.865Z,99876.72
2023-03-15T22:51:17.559Z,99904.84
2023-03-15T22:53:44.969Z,99879.34
2023-03-15T22:56:12.622Z,99876.38
2023-03-15T22:58:39.898Z,99862.88
2023-03-15T23:01:07.286Z,99841.56
2023-03-15T23:03:34.652Z,99849.50
2023-03-15T23:06:02.063Z,99882.38
2023-03-15T23:08:29.323Z,99878.38
2023-03-15T23:10:58.526Z,99875.34
2023-03-15T23:13:26.978Z,99848.91
2023-03-15T23:15:54.689Z,99877.88
2023-03-15T23:18:22.947Z,99867.06
2023-03-15T23:20:50.577Z,99854.28
2023-03-15T23:23:18.555Z,99854.94
2023-03-15T23:25:47.030Z,99854.94
2023-03-15T23:28:17.312Z,99863.19
2023-03-15T23:30:45.977Z,99852.28
2023-03-15T23:33:13.580Z,99870.69
2023-03-15T23:35:42.141Z,99870.50
2023-03-15T23:38:09.797Z,99850.00
2023-03-15T23:40:36.964Z,99881.28
2023-03-15T23:43:04.514Z,99844.09
2023-03-15T23:45:32.731Z,99866.56
2023-03-15T23:48:00.115Z,99851.06
2023-03-15T23:50:29.418Z,99843.91
2023-03-15T23:52:57.305Z,99846.72
2023-03-15T23:55:24.868Z,99824.50
2023-03-15T23:57:52.436Z,99861.06
